Trapani / Birgi Airport LICT

Flugplatz Daten

Name: Trapani / Birgi Airport

Ident: LICT

Lat: 37,91139984

Long: 12,48799992

Platzhöhe: 25 ft

IataCode: TPS

City: Trapani

Metar

2021/08/05 14:55
LICT 051455Z 33012KT CAVOK 30/23 Q1013 RMK SKC VIS MIN 9999 WIND THR13 36010KT BLU

Taf

2021/02/10 12:24
TAF TAF LICT 101100Z 1012/1024 18015KT CAVOK
BECMG 1015/1017 7000 RA BKN018
BECMG 1018/1020 26020G32KT
TEMPO 1020/1024 27025G40KT TSRA SCT015CB BKN018
Gewünschte Webcam nicht vorhanden? Dann fügen Sie eine hinzu. Sie wird dann so schnell wie möglich freigeschaltet
Url: Title: